createdAt,value
2022-08-03T00:00:24.290Z,33.17
2022-08-03T00:02:51.116Z,19.77
2022-08-03T00:05:17.737Z,19.42
2022-08-03T00:07:44.272Z,15.38
2022-08-03T00:10:12.713Z,16.80
2022-08-03T00:12:39.353Z,11.07
2022-08-03T00:15:08.298Z,12.10
2022-08-03T00:17:52.676Z,11.45
2022-08-03T00:20:23.536Z,14.85
2022-08-03T00:22:50.409Z,14.77
2022-08-03T00:25:17.789Z,14.55
2022-08-03T00:27:44.305Z,12.45
2022-08-03T00:30:11.456Z,14.57
2022-08-03T00:32:38.862Z,12.65
2022-08-03T00:35:27.366Z,18.20
2022-08-03T00:37:58.916Z,10.25
2022-08-03T00:40:26.088Z,15.90
2022-08-03T00:42:58.779Z,13.07
2022-08-03T00:45:28.096Z,19.45
2022-08-03T00:47:55.301Z,18.38
2022-08-03T00:50:24.194Z,20.00
2022-08-03T00:52:53.972Z,17.52
2022-08-03T00:55:21.003Z,19.25
2022-08-03T00:57:48.196Z,18.58
2022-08-03T01:00:18.385Z,17.05
2022-08-03T01:02:45.165Z,19.58
2022-08-03T01:05:12.166Z,19.50
2022-08-03T01:07:47.851Z,31.05
2022-08-03T01:10:38.689Z,20.30
2022-08-03T01:14:03.537Z,22.90
2022-08-03T01:16:25.825Z,21.47
2022-08-03T01:19:29.591Z,18.98
2022-08-03T01:22:24.154Z,19.00
2022-08-03T01:25:14.695Z,25.23
2022-08-03T01:28:18.676Z,22.75
2022-08-03T01:30:47.648Z,25.50
2022-08-03T01:33:20.307Z,21.63
2022-08-03T01:36:13.171Z,35.85
2022-08-03T01:38:44.810Z,52.35
2022-08-03T01:41:18.854Z,29.08
2022-08-03T01:44:26.792Z,20.92
2022-08-03T01:46:38.477Z,19.85
2022-08-03T01:49:09.694Z,34.33
2022-08-03T01:51:57.907Z,28.77
2022-08-03T01:54:26.476Z,21.85
2022-08-03T01:56:55.600Z,21.52
2022-08-03T02:02:29.098Z,36.15
2022-08-03T02:04:39.119Z,25.57
2022-08-03T02:07:07.906Z,22.77
2022-08-03T02:09:37.111Z,16.90
2022-08-03T02:12:07.462Z,17.10
2022-08-03T02:14:34.932Z,17.00
2022-08-03T02:17:01.969Z,15.98
2022-08-03T02:19:35.266Z,20.60
2022-08-03T02:22:03.733Z,17.38
2022-08-03T02:24:31.988Z,18.45
2022-08-03T02:26:59.899Z,18.35
2022-08-03T02:29:39.262Z,19.25
2022-08-03T02:32:10.743Z,14.95
2022-08-03T02:34:40.168Z,17.38
2022-08-03T02:37:10.307Z,20.05
2022-08-03T02:39:39.141Z,20.85
2022-08-03T02:42:09.021Z,24.42
2022-08-03T02:44:37.667Z,17.30
2022-08-03T02:47:08.149Z,17.92
2022-08-03T02:49:50.085Z,15.45
2022-08-03T02:52:21.582Z,15.90
2022-08-03T02:54:51.249Z,19.92
2022-08-03T02:57:19.938Z,16.88
2022-08-03T02:59:47.280Z,13.60
2022-08-03T03:02:16.206Z,13.85
2022-08-03T03:07:31.393Z,15.65
2022-08-03T03:10:07.751Z,15.25
2022-08-03T03:12:37.126Z,16.63
2022-08-03T03:15:06.594Z,15.73
2022-08-03T03:17:35.148Z,12.90
2022-08-03T03:20:02.955Z,11.55
2022-08-03T03:22:31.234Z,12.80
2022-08-03T03:24:58.035Z,12.10
2022-08-03T03:27:25.494Z,12.98
2022-08-03T03:29:54.153Z,13.95
2022-08-03T03:32:20.760Z,15.80
2022-08-03T03:34:48.139Z,15.48
2022-08-03T03:37:14.729Z,14.82
2022-08-03T03:39:41.345Z,19.85
2022-08-03T03:42:07.936Z,16.35
2022-08-03T03:44:34.565Z,15.05
2022-08-03T03:47:01.128Z,16.98
2022-08-03T03:49:27.892Z,15.70
2022-08-03T03:51:55.927Z,16.80
2022-08-03T03:54:22.555Z,12.63
2022-08-03T03:56:52.335Z,11.20
2022-08-03T03:59:19.032Z,13.93
2022-08-03T04:01:45.901Z,15.50
2022-08-03T04:04:31.091Z,12.43
2022-08-03T04:07:16.254Z,14.77
2022-08-03T04:10:08.850Z,14.15
2022-08-03T04:12:50.263Z,13.07
2022-08-03T04:15:21.057Z,14.73
2022-08-03T04:17:50.311Z,15.18
2022-08-03T04:20:21.532Z,11.80
2022-08-03T04:22:52.968Z,11.35
2022-08-03T04:25:22.903Z,13.32
2022-08-03T04:28:21.004Z,16.58
2022-08-03T04:30:47.507Z,15.75
2022-08-03T04:33:16.491Z,14.43
2022-08-03T04:36:01.462Z,15.13
2022-08-03T04:38:31.742Z,12.75
2022-08-03T04:40:59.904Z,11.80
2022-08-03T04:43:27.743Z,14.10
2022-08-03T04:45:54.861Z,12.10
2022-08-03T04:48:21.749Z,14.10
2022-08-03T04:50:48.625Z,16.20
2022-08-03T04:53:16.545Z,36.88
2022-08-03T04:55:43.239Z,15.23
2022-08-03T04:58:09.907Z,14.20
2022-08-03T05:00:36.528Z,13.93
2022-08-03T05:03:03.094Z,21.48
2022-08-03T05:05:48.962Z,15.13
2022-08-03T05:08:16.345Z,56.60
2022-08-03T05:10:47.735Z,27.17
2022-08-03T05:13:14.645Z,12.95
2022-08-03T05:15:43.227Z,15.20
2022-08-03T05:18:13.841Z,36.53
2022-08-03T05:20:41.178Z,15.57
2022-08-03T05:23:07.880Z,15.02
2022-08-03T05:25:34.459Z,13.60
2022-08-03T05:28:01.436Z,13.20
2022-08-03T05:30:33.372Z,16.00
2022-08-03T05:33:02.152Z,14.85
2022-08-03T05:36:02.097Z,12.98
2022-08-03T05:38:24.108Z,12.05
2022-08-03T05:40:57.503Z,14.27
2022-08-03T05:43:43.079Z,13.10
2022-08-03T05:46:13.061Z,15.60
2022-08-03T05:48:40.128Z,17.27
2022-08-03T05:51:07.850Z,12.50
2022-08-03T05:53:34.935Z,17.77
2022-08-03T05:56:13.174Z,16.42
2022-08-03T05:58:42.125Z,19.48
2022-08-03T06:01:08.817Z,15.02
2022-08-03T06:03:35.422Z,23.90
2022-08-03T06:06:02.018Z,14.80
2022-08-03T06:08:28.594Z,15.75
2022-08-03T06:10:55.110Z,22.42
2022-08-03T06:13:22.073Z,19.60
2022-08-03T06:15:48.760Z,21.10
2022-08-03T06:18:15.324Z,17.33
2022-08-03T06:20:41.852Z,20.92
2022-08-03T06:23:08.385Z,18.48
2022-08-03T06:25:43.194Z,17.98
2022-08-03T06:28:18.960Z,16.48
2022-08-03T06:30:51.047Z,15.32
2022-08-03T06:33:17.614Z,16.02
2022-08-03T06:35:44.717Z,16.38
2022-08-03T06:38:13.032Z,17.48
2022-08-03T06:40:42.583Z,16.58
2022-08-03T06:43:12.704Z,17.42
2022-08-03T06:45:39.465Z,17.50
2022-08-03T06:48:06.173Z,18.42
2022-08-03T06:50:34.131Z,18.85
2022-08-03T06:53:01.327Z,17.15
2022-08-03T06:55:28.498Z,16.55
2022-08-03T06:57:55.172Z,19.20
2022-08-03T07:00:26.452Z,16.77
2022-08-03T07:02:57.950Z,17.70
2022-08-03T07:05:25.002Z,21.15
2022-08-03T07:07:54.367Z,22.42
2022-08-03T07:10:20.880Z,19.48
2022-08-03T07:12:56.097Z,20.52
2022-08-03T07:15:54.062Z,21.38
2022-08-03T07:18:10.286Z,21.13
2022-08-03T07:20:36.803Z,21.15
2022-08-03T07:23:03.460Z,21.30
2022-08-03T07:25:30.018Z,26.38
2022-08-03T07:27:56.563Z,25.48
2022-08-03T07:30:24.821Z,27.25
2022-08-03T07:32:51.417Z,21.75
2022-08-03T07:35:24.673Z,24.25
2022-08-03T07:37:55.057Z,21.23
2022-08-03T07:40:22.545Z,20.65
2022-08-03T07:42:53.291Z,21.27
2022-08-03T07:45:23.340Z,21.30
2022-08-03T07:47:53.182Z,23.05
2022-08-03T07:50:21.320Z,18.17
2022-08-03T07:52:48.190Z,15.00
2022-08-03T07:55:15.546Z,15.45
2022-08-03T07:57:42.267Z,23.40
2022-08-03T08:00:18.279Z,16.92
2022-08-03T08:02:45.266Z,24.92
2022-08-03T08:05:12.677Z,16.25
2022-08-03T08:07:39.903Z,17.20
2022-08-03T08:10:08.404Z,19.27
2022-08-03T08:12:35.098Z,14.40
2022-08-03T08:15:02.039Z,13.60
2022-08-03T08:17:28.669Z,18.33
2022-08-03T08:19:55.293Z,16.75
2022-08-03T08:22:30.271Z,13.27
2022-08-03T08:24:57.744Z,12.05
2022-08-03T08:27:24.248Z,14.25
2022-08-03T08:29:54.561Z,9.95
2022-08-03T08:32:23.208Z,11.63
2022-08-03T08:34:49.729Z,10.93
2022-08-03T08:37:16.499Z,13.60
2022-08-03T08:39:43.077Z,13.93
2022-08-03T08:42:10.285Z,10.57
2022-08-03T08:44:36.993Z,9.70
2022-08-03T08:47:04.647Z,10.30
2022-08-03T08:49:33.120Z,9.98
2022-08-03T08:52:01.335Z,13.60
2022-08-03T08:54:29.694Z,10.10
2022-08-03T08:57:01.938Z,8.63
2022-08-03T08:59:48.689Z,9.25
2022-08-03T09:02:16.279Z,12.85
2022-08-03T09:04:43.154Z,10.98
2022-08-03T09:07:19.975Z,11.23
2022-08-03T09:10:10.889Z,15.48
2022-08-03T09:12:45.048Z,10.30
2022-08-03T09:15:31.358Z,12.27
2022-08-03T09:18:00.245Z,9.32
2022-08-03T09:23:13.183Z,8.73
2022-08-03T09:25:58.248Z,10.85
2022-08-03T09:28:59.916Z,14.38
2022-08-03T09:31:30.526Z,12.73
2022-08-03T09:34:01.077Z,10.18
2022-08-03T09:36:47.017Z,13.20
2022-08-03T09:39:16.645Z,12.35
2022-08-03T09:41:48.459Z,9.15
2022-08-03T09:44:24.281Z,6.65
2022-08-03T09:46:55.923Z,8.18
2022-08-03T09:49:23.081Z,12.45
2022-08-03T09:52:31.325Z,11.18
2022-08-03T09:54:36.598Z,10.40
2022-08-03T09:57:03.317Z,13.18
2022-08-03T09:59:33.342Z,10.63
2022-08-03T10:02:01.898Z,10.18
2022-08-03T10:04:29.208Z,14.70
2022-08-03T10:07:07.201Z,11.43
2022-08-03T10:09:33.960Z,17.30
2022-08-03T10:12:13.930Z,9.52
2022-08-03T10:14:42.167Z,11.93
2022-08-03T10:17:09.794Z,11.17
2022-08-03T10:19:36.643Z,10.65
2022-08-03T10:22:10.524Z,10.15
2022-08-03T10:24:39.360Z,9.93
2022-08-03T10:29:38.884Z,9.67
2022-08-03T10:32:19.189Z,10.02
2022-08-03T10:34:48.643Z,16.23
2022-08-03T10:37:17.475Z,8.52
2022-08-03T10:39:53.524Z,8.52
2022-08-03T10:42:24.679Z,9.63
2022-08-03T10:45:16.077Z,11.63
2022-08-03T10:47:42.890Z,6.65
2022-08-03T10:50:10.069Z,8.63
2022-08-03T10:52:41.297Z,7.50
2022-08-03T10:55:57.318Z,9.10
2022-08-03T10:58:37.215Z,9.02
2022-08-03T11:03:54.771Z,9.77
2022-08-03T11:06:24.630Z,11.27
2022-08-03T11:09:11.062Z,20.48
2022-08-03T11:11:38.816Z,9.48
2022-08-03T11:14:08.129Z,9.73
2022-08-03T11:16:47.250Z,8.98
2022-08-03T11:19:22.487Z,9.45
2022-08-03T11:21:49.266Z,10.77
2022-08-03T11:24:51.276Z,10.68
2022-08-03T11:27:19.656Z,41.50
2022-08-03T11:30:06.596Z,13.40
2022-08-03T11:32:46.834Z,10.60
2022-08-03T11:35:43.849Z,38.13
2022-08-03T11:38:11.538Z,13.57
2022-08-03T11:40:42.958Z,13.15
2022-08-03T11:43:31.038Z,15.20
2022-08-03T11:46:02.442Z,16.20
2022-08-03T11:48:45.283Z,10.65
2022-08-03T11:51:20.836Z,14.10
2022-08-03T11:53:47.907Z,9.57
2022-08-03T11:56:14.545Z,14.32
2022-08-03T11:59:17.702Z,7.82
2022-08-03T12:01:35.590Z,7.75
2022-08-03T12:04:05.898Z,8.60
2022-08-03T12:06:54.994Z,7.50
2022-08-03T12:09:22.009Z,7.53
2022-08-03T12:12:00.335Z,8.68
2022-08-03T12:14:49.199Z,12.43
2022-08-03T12:17:16.333Z,8.57
2022-08-03T12:19:43.894Z,11.43
2022-08-03T12:22:10.568Z,8.95
2022-08-03T12:24:46.787Z,11.27
2022-08-03T12:27:23.460Z,7.43
2022-08-03T12:29:57.310Z,11.77
2022-08-03T12:32:26.863Z,9.40
2022-08-03T12:34:53.450Z,8.43
2022-08-03T12:37:23.021Z,8.75
2022-08-03T12:40:02.835Z,7.53
2022-08-03T12:42:38.477Z,7.43
2022-08-03T12:45:25.074Z,7.45
2022-08-03T12:47:59.184Z,7.22
2022-08-03T12:50:27.158Z,7.70
2022-08-03T12:52:54.136Z,8.07
2022-08-03T12:55:22.269Z,11.27
2022-08-03T12:57:49.482Z,8.98
2022-08-03T13:00:21.606Z,6.90
2022-08-03T13:03:39.686Z,9.27
2022-08-03T13:05:51.627Z,7.72
2022-08-03T13:08:23.243Z,7.70
2022-08-03T13:10:50.268Z,9.05
2022-08-03T13:13:16.895Z,6.97
2022-08-03T13:15:48.133Z,10.50
2022-08-03T13:18:17.265Z,7.28
2022-08-03T13:20:44.322Z,6.95
2022-08-03T13:23:13.910Z,7.85
2022-08-03T13:25:54.401Z,7.47
2022-08-03T13:28:22.793Z,6.85
2022-08-03T13:30:49.538Z,6.80
2022-08-03T13:33:16.155Z,10.95
2022-08-03T13:35:42.709Z,14.85
2022-08-03T13:38:09.275Z,9.00
2022-08-03T13:40:41.474Z,11.10
2022-08-03T13:43:08.595Z,8.40
2022-08-03T13:45:35.154Z,6.25
2022-08-03T13:48:01.780Z,9.00
2022-08-03T13:50:28.358Z,9.35
2022-08-03T13:52:54.901Z,7.55
2022-08-03T13:55:21.413Z,8.70
2022-08-03T13:58:06.664Z,8.02
2022-08-03T14:00:35.958Z,6.70
2022-08-03T14:03:13.288Z,7.93
2022-08-03T14:05:41.881Z,5.95
2022-08-03T14:08:09.113Z,6.97
2022-08-03T14:10:37.716Z,10.52
2022-08-03T14:13:05.129Z,8.98
2022-08-03T14:15:31.734Z,8.50
2022-08-03T14:17:58.997Z,7.43
2022-08-03T14:20:37.359Z,9.77
2022-08-03T14:23:06.854Z,5.72
2022-08-03T14:25:44.464Z,5.37
2022-08-03T14:28:23.224Z,10.88
2022-08-03T14:30:54.715Z,8.38
2022-08-03T14:33:21.742Z,6.38
2022-08-03T14:35:48.772Z,7.53
2022-08-03T14:38:15.867Z,6.80
2022-08-03T14:40:42.836Z,8.82
2022-08-03T14:43:09.747Z,5.82
2022-08-03T14:45:36.440Z,6.20
2022-08-03T14:50:32.571Z,5.68
2022-08-03T14:50:52.838Z,7.07
2022-08-03T14:53:19.884Z,6.55
2022-08-03T14:55:50.825Z,6.63
2022-08-03T14:58:26.048Z,6.35
2022-08-03T15:00:54.177Z,15.38
2022-08-03T15:03:23.865Z,8.82
2022-08-03T15:05:55.567Z,8.80
2022-08-03T15:08:23.785Z,8.55
2022-08-03T15:10:50.885Z,8.73
2022-08-03T15:13:18.611Z,7.78
2022-08-03T15:15:45.718Z,8.95
2022-08-03T15:18:12.440Z,5.28
2022-08-03T15:20:44.858Z,4.47
2022-08-03T15:23:14.281Z,6.53
2022-08-03T15:26:06.493Z,8.68
2022-08-03T15:28:27.688Z,8.85
2022-08-03T15:30:54.751Z,21.27
2022-08-03T15:33:21.689Z,7.80
2022-08-03T15:35:48.386Z,6.20
2022-08-03T15:38:15.228Z,7.97
2022-08-03T15:40:42.009Z,9.05
2022-08-03T15:43:09.001Z,7.30
2022-08-03T15:45:36.354Z,5.97
2022-08-03T15:48:04.944Z,8.33
2022-08-03T15:50:31.535Z,9.75
2022-08-03T15:52:58.100Z,10.18
2022-08-03T15:55:24.825Z,8.32
2022-08-03T15:59:09.787Z,8.70
2022-08-03T16:00:38.227Z,7.50
2022-08-03T16:03:04.847Z,9.95
2022-08-03T16:05:31.950Z,11.27
2022-08-03T16:08:04.005Z,5.80
2022-08-03T16:10:31.991Z,5.75
2022-08-03T16:12:59.007Z,5.70
2022-08-03T16:15:25.814Z,7.45
2022-08-03T16:17:52.397Z,5.05
2022-08-03T16:20:29.257Z,7.13
2022-08-03T16:23:00.328Z,7.63
2022-08-03T16:25:28.286Z,8.35
2022-08-03T16:28:03.277Z,5.40
2022-08-03T16:30:34.954Z,5.20
2022-08-03T16:33:01.558Z,7.13
2022-08-03T16:35:28.092Z,4.93
2022-08-03T16:37:56.411Z,9.25
2022-08-03T16:40:25.024Z,6.55
2022-08-03T16:42:53.094Z,5.20
2022-08-03T16:45:19.757Z,5.88
2022-08-03T16:47:46.271Z,9.30
2022-08-03T16:50:18.954Z,12.40
2022-08-03T16:52:47.687Z,12.48
2022-08-03T16:58:03.169Z,9.40
2022-08-03T17:00:33.720Z,8.40
2022-08-03T17:03:04.198Z,7.75
2022-08-03T17:05:43.655Z,19.40
2022-08-03T17:08:14.149Z,11.32
2022-08-03T17:10:45.126Z,10.65
2022-08-03T17:13:21.798Z,10.75
2022-08-03T17:16:00.738Z,14.77
2022-08-03T17:18:34.180Z,12.80
2022-08-03T17:21:06.004Z,14.13
2022-08-03T17:23:44.449Z,9.43
2022-08-03T17:26:21.258Z,9.93
2022-08-03T17:28:57.418Z,7.80
2022-08-03T17:31:31.536Z,7.22
2022-08-03T17:34:01.905Z,7.72
2022-08-03T17:36:54.070Z,9.95
2022-08-03T17:39:17.388Z,17.80
2022-08-03T17:41:50.179Z,8.52
2022-08-03T17:44:35.156Z,7.72
2022-08-03T17:47:06.610Z,10.18
2022-08-03T17:49:33.469Z,9.38
2022-08-03T17:52:30.771Z,9.70
2022-08-03T17:55:55.443Z,10.40
2022-08-03T18:00:51.631Z,9.88
2022-08-03T18:03:27.787Z,10.70
2022-08-03T18:06:11.219Z,9.63
2022-08-03T18:08:46.358Z,9.15
2022-08-03T18:11:16.823Z,8.13
2022-08-03T18:14:16.141Z,7.75
2022-08-03T18:16:52.311Z,7.05
2022-08-03T18:19:21.230Z,8.48
2022-08-03T18:22:09.972Z,12.80
2022-08-03T18:24:37.721Z,6.57
2022-08-03T18:27:06.513Z,5.75
2022-08-03T18:32:03.770Z,11.45
2022-08-03T18:34:34.086Z,8.30
2022-08-03T18:37:07.384Z,7.95
2022-08-03T18:39:49.365Z,5.60
2022-08-03T18:42:19.652Z,13.70
2022-08-03T18:44:53.997Z,12.63
2022-08-03T18:50:49.513Z,6.43
2022-08-03T18:53:22.185Z,6.75
2022-08-03T18:56:22.677Z,6.22
2022-08-03T18:59:10.654Z,14.40
2022-08-03T19:02:00.496Z,14.25
2022-08-03T19:04:41.047Z,12.48
2022-08-03T19:07:09.560Z,7.85
2022-08-03T19:09:52.135Z,9.15
2022-08-03T19:12:30.863Z,10.70
2022-08-03T19:15:06.485Z,9.82
2022-08-03T19:17:50.189Z,8.02
2022-08-03T19:20:22.248Z,13.82
2022-08-03T19:22:50.946Z,7.90
2022-08-03T19:25:18.228Z,10.95
2022-08-03T19:27:48.150Z,7.72
2022-08-03T19:30:35.826Z,8.23
2022-08-03T19:33:08.215Z,6.10
2022-08-03T19:35:54.956Z,6.70
2022-08-03T19:38:28.427Z,7.32
2022-08-03T19:40:59.849Z,11.05
2022-08-03T19:43:32.928Z,6.95
2022-08-03T19:46:17.081Z,10.80
2022-08-03T19:48:54.510Z,9.48
2022-08-03T19:51:58.509Z,8.55
2022-08-03T19:56:48.830Z,14.63
2022-08-03T19:59:16.139Z,6.75
2022-08-03T20:01:50.868Z,17.90
2022-08-03T20:04:17.986Z,5.60
2022-08-03T20:06:49.667Z,12.57
2022-08-03T20:09:18.051Z,12.63
2022-08-03T20:11:45.270Z,7.85
2022-08-03T20:14:13.193Z,7.80
2022-08-03T20:16:42.710Z,7.70
2022-08-03T20:19:14.067Z,9.85
2022-08-03T20:21:45.035Z,8.38
2022-08-03T20:24:23.025Z,7.28
2022-08-03T20:26:55.117Z,14.05
2022-08-03T20:30:04.926Z,7.80
2022-08-03T20:32:24.623Z,8.25
2022-08-03T20:34:52.003Z,8.25
2022-08-03T20:37:19.662Z,10.23
2022-08-03T20:39:49.573Z,12.27
2022-08-03T20:42:21.088Z,10.07
2022-08-03T20:45:04.554Z,8.55
2022-08-03T20:47:36.880Z,8.65
2022-08-03T20:50:17.182Z,5.82
2022-08-03T20:52:49.768Z,6.90
2022-08-03T20:55:18.697Z,6.93
2022-08-03T20:58:05.263Z,8.95
2022-08-03T21:00:31.816Z,9.73
2022-08-03T21:02:58.902Z,8.50
2022-08-03T21:05:47.770Z,6.22
2022-08-03T21:08:15.855Z,20.08
2022-08-03T21:10:42.928Z,9.93
2022-08-03T21:13:09.234Z,8.73
2022-08-03T21:13:24.040Z,9.20
2022-08-03T21:16:06.583Z,10.07
2022-08-03T21:18:46.666Z,8.10
2022-08-03T21:21:15.802Z,8.30
2022-08-03T21:26:24.855Z,5.97
2022-08-03T21:28:54.174Z,5.05
2022-08-03T21:31:25.705Z,6.53
2022-08-03T21:33:58.004Z,10.38
2022-08-03T21:36:30.032Z,9.18
2022-08-03T21:38:57.917Z,6.88
2022-08-03T21:41:30.142Z,8.77
2022-08-03T21:43:58.049Z,9.40
2022-08-03T21:46:26.873Z,12.05
2022-08-03T21:48:56.200Z,9.27
2022-08-03T21:51:25.907Z,8.40
2022-08-03T21:54:00.278Z,9.05
2022-08-03T21:56:40.205Z,8.30
2022-08-03T21:59:08.688Z,10.13
2022-08-03T22:01:39.701Z,9.88
2022-08-03T22:04:07.342Z,6.15
2022-08-03T22:06:36.146Z,10.25
2022-08-03T22:09:05.710Z,8.93
2022-08-03T22:11:35.074Z,7.80
2022-08-03T22:14:01.816Z,8.75
2022-08-03T22:16:29.857Z,7.07
2022-08-03T22:18:56.481Z,5.95
2022-08-03T22:21:35.813Z,6.93
2022-08-03T22:24:05.121Z,5.88
2022-08-03T22:26:35.203Z,6.07
2022-08-03T22:29:07.268Z,5.68
2022-08-03T22:31:58.274Z,5.65
2022-08-03T22:34:26.399Z,6.32
2022-08-03T22:36:57.174Z,11.88
2022-08-03T22:39:28.833Z,7.28
2022-08-03T22:41:59.020Z,11.02
2022-08-03T22:44:27.507Z,6.28
2022-08-03T22:46:54.363Z,7.03
2022-08-03T22:49:22.262Z,8.68
2022-08-03T22:51:51.881Z,5.20
2022-08-03T22:54:18.948Z,7.13
2022-08-03T22:56:49.673Z,6.13
2022-08-03T22:59:40.955Z,12.73
2022-08-03T23:02:20.420Z,9.38
2022-08-03T23:04:57.005Z,10.57
2022-08-03T23:07:35.198Z,14.93
2022-08-03T23:10:04.951Z,6.13
2022-08-03T23:12:34.771Z,15.50
2022-08-03T23:15:03.869Z,8.40
2022-08-03T23:20:07.670Z,9.63
2022-08-03T23:22:38.368Z,8.43
2022-08-03T23:25:10.374Z,8.55
2022-08-03T23:27:42.303Z,15.57
2022-08-03T23:30:10.362Z,7.57
2022-08-03T23:32:38.087Z,11.80
2022-08-03T23:36:28.014Z,7.80
2022-08-03T23:38:21.616Z,9.43
2022-08-03T23:40:51.254Z,8.07
2022-08-03T23:43:44.418Z,11.80
2022-08-03T23:46:07.763Z,8.83
2022-08-03T23:48:34.532Z,13.52
2022-08-03T23:51:09.907Z,8.18
2022-08-03T23:53:48.623Z,11.75
2022-08-03T23:56:26.371Z,8.52
2022-08-03T23:59:17.125Z,14.00
